sensor_id;sensor_type;location;lat;lon;timestamp;temperature;humidity
21275;DHT22;36472;52.170;20.884;2024-02-28T00:00:15;31.10;40.30
21275;DHT22;36472;52.170;20.884;2024-02-28T00:03:05;31.10;40.30
21275;DHT22;36472;52.170;20.884;2024-02-28T00:05:34;31.10;40.10
21275;DHT22;36472;52.170;20.884;2024-02-28T00:08:03;31.10;40.20
21275;DHT22;36472;52.170;20.884;2024-02-28T00:10:33;31.10;40.30
21275;DHT22;36472;52.170;20.884;2024-02-28T00:13:03;31.10;40.30
21275;DHT22;36472;52.170;20.884;2024-02-28T00:15:33;31.00;40.30
21275;DHT22;36472;52.170;20.884;2024-02-28T00:18:02;31.00;40.30
21275;DHT22;36472;52.170;20.884;2024-02-28T00:20:32;31.00;40.50
21275;DHT22;36472;52.170;20.884;2024-02-28T00:23:00;31.00;40.50
21275;DHT22;36472;52.170;20.884;2024-02-28T00:25:30;31.00;41.20
21275;DHT22;36472;52.170;20.884;2024-02-28T00:27:59;31.00;40.50
21275;DHT22;36472;52.170;20.884;2024-02-28T00:30:29;31.00;40.60
21275;DHT22;36472;52.170;20.884;2024-02-28T00:33:00;30.90;40.60
21275;DHT22;36472;52.170;20.884;2024-02-28T00:35:32;30.90;40.70
21275;DHT22;36472;52.170;20.884;2024-02-28T00:38:02;30.90;40.70
21275;DHT22;36472;52.170;20.884;2024-02-28T00:40:31;30.80;40.70
21275;DHT22;36472;52.170;20.884;2024-02-28T00:43:01;30.80;40.80
21275;DHT22;36472;52.170;20.884;2024-02-28T00:45:31;30.80;40.90
21275;DHT22;36472;52.170;20.884;2024-02-28T00:48:00;30.90;41.00
21275;DHT22;36472;52.170;20.884;2024-02-28T00:50:29;30.90;40.90
21275;DHT22;36472;52.170;20.884;2024-02-28T00:53:01;30.90;40.90
21275;DHT22;36472;52.170;20.884;2024-02-28T00:55:31;30.90;41.60
21275;DHT22;36472;52.170;20.884;2024-02-28T00:58:01;30.90;41.00
21275;DHT22;36472;52.170;20.884;2024-02-28T01:00:31;30.90;41.10
21275;DHT22;36472;52.170;20.884;2024-02-28T01:03:03;30.90;41.10
21275;DHT22;36472;52.170;20.884;2024-02-28T01:05:32;30.90;41.20
21275;DHT22;36472;52.170;20.884;2024-02-28T01:08:05;30.90;41.20
21275;DHT22;36472;52.170;20.884;2024-02-28T01:10:35;30.90;41.20
21275;DHT22;36472;52.170;20.884;2024-02-28T01:13:05;30.90;41.20
21275;DHT22;36472;52.170;20.884;2024-02-28T01:15:36;30.90;41.30
21275;DHT22;36472;52.170;20.884;2024-02-28T01:18:05;30.90;41.30
21275;DHT22;36472;52.170;20.884;2024-02-28T01:20:34;30.90;41.50
21275;DHT22;36472;52.170;20.884;2024-02-28T01:23:04;30.90;42.20
21275;DHT22;36472;52.170;20.884;2024-02-28T01:25:33;30.80;41.50
21275;DHT22;36472;52.170;20.884;2024-02-28T01:28:03;30.80;41.60
21275;DHT22;36472;52.170;20.884;2024-02-28T01:30:33;30.80;41.50
21275;DHT22;36472;52.170;20.884;2024-02-28T01:33:04;30.80;41.40
21275;DHT22;36472;52.170;20.884;2024-02-28T01:35:33;30.80;41.70
21275;DHT22;36472;52.170;20.884;2024-02-28T01:38:02;30.80;42.50
21275;DHT22;36472;52.170;20.884;2024-02-28T01:40:35;30.80;41.80
21275;DHT22;36472;52.170;20.884;2024-02-28T01:43:04;30.80;41.80
21275;DHT22;36472;52.170;20.884;2024-02-28T01:45:36;30.80;41.80
21275;DHT22;36472;52.170;20.884;2024-02-28T01:48:07;30.80;42.00
21275;DHT22;36472;52.170;20.884;2024-02-28T01:50:41;30.80;42.20
21275;DHT22;36472;52.170;20.884;2024-02-28T01:53:11;30.80;42.10
21275;DHT22;36472;52.170;20.884;2024-02-28T01:55:42;30.70;42.10
21275;DHT22;36472;52.170;20.884;2024-02-28T01:58:12;30.80;42.10
21275;DHT22;36472;52.170;20.884;2024-02-28T02:00:41;30.80;42.20
21275;DHT22;36472;52.170;20.884;2024-02-28T02:03:12;30.70;42.10
21275;DHT22;36472;52.170;20.884;2024-02-28T02:05:42;30.70;42.80
21275;DHT22;36472;52.170;20.884;2024-02-28T02:08:11;30.80;43.10
21275;DHT22;36472;52.170;20.884;2024-02-28T02:10:41;30.70;42.40
21275;DHT22;36472;52.170;20.884;2024-02-28T02:13:10;30.70;42.40
21275;DHT22;36472;52.170;20.884;2024-02-28T02:15:40;30.70;42.40
21275;DHT22;36472;52.170;20.884;2024-02-28T02:18:09;30.70;42.40
21275;DHT22;36472;52.170;20.884;2024-02-28T02:20:44;30.70;42.40
21275;DHT22;36472;52.170;20.884;2024-02-28T02:23:19;30.70;42.50
21275;DHT22;36472;52.170;20.884;2024-02-28T02:25:48;30.70;42.50
21275;DHT22;36472;52.170;20.884;2024-02-28T02:28:17;30.70;42.50
21275;DHT22;36472;52.170;20.884;2024-02-28T02:35:19;30.70;42.80
21275;DHT22;36472;52.170;20.884;2024-02-28T02:37:48;30.70;42.60
21275;DHT22;36472;52.170;20.884;2024-02-28T02:40:18;30.60;42.60
21275;DHT22;36472;52.170;20.884;2024-02-28T02:42:47;30.70;43.50
21275;DHT22;36472;52.170;20.884;2024-02-28T02:45:16;30.60;42.70
21275;DHT22;36472;52.170;20.884;2024-02-28T02:47:45;30.60;42.80
21275;DHT22;36472;52.170;20.884;2024-02-28T02:50:15;30.60;43.60
21275;DHT22;36472;52.170;20.884;2024-02-28T02:52:44;30.60;42.90
21275;DHT22;36472;52.170;20.884;2024-02-28T02:55:15;30.60;42.80
21275;DHT22;36472;52.170;20.884;2024-02-28T02:57:46;30.60;42.90
21275;DHT22;36472;52.170;20.884;2024-02-28T03:00:16;30.60;42.90
21275;DHT22;36472;52.170;20.884;2024-02-28T03:02:45;30.60;42.90
21275;DHT22;36472;52.170;20.884;2024-02-28T03:05:14;30.50;43.10
21275;DHT22;36472;52.170;20.884;2024-02-28T03:07:43;30.50;43.20
21275;DHT22;36472;52.170;20.884;2024-02-28T03:10:12;30.40;43.20
21275;DHT22;36472;52.170;20.884;2024-02-28T03:12:41;30.40;43.20
21275;DHT22;36472;52.170;20.884;2024-02-28T03:15:12;30.40;43.20
21275;DHT22;36472;52.170;20.884;2024-02-28T03:17:41;30.40;43.20
21275;DHT22;36472;52.170;20.884;2024-02-28T03:20:11;30.40;43.20
21275;DHT22;36472;52.170;20.884;2024-02-28T03:22:40;30.40;43.20
21275;DHT22;36472;52.170;20.884;2024-02-28T03:25:09;30.40;43.20
21275;DHT22;36472;52.170;20.884;2024-02-28T03:27:38;30.50;43.00
21275;DHT22;36472;52.170;20.884;2024-02-28T03:30:08;30.50;43.10
21275;DHT22;36472;52.170;20.884;2024-02-28T03:32:39;30.50;43.20
21275;DHT22;36472;52.170;20.884;2024-02-28T03:35:08;30.50;43.10
21275;DHT22;36472;52.170;20.884;2024-02-28T03:37:37;30.50;43.10
21275;DHT22;36472;52.170;20.884;2024-02-28T03:40:07;30.50;42.90
21275;DHT22;36472;52.170;20.884;2024-02-28T03:42:37;30.50;43.00
21275;DHT22;36472;52.170;20.884;2024-02-28T03:45:07;30.50;42.80
21275;DHT22;36472;52.170;20.884;2024-02-28T03:47:36;30.50;42.90
21275;DHT22;36472;52.170;20.884;2024-02-28T03:50:08;30.60;42.60
21275;DHT22;36472;52.170;20.884;2024-02-28T03:52:37;30.60;42.80
21275;DHT22;36472;52.170;20.884;2024-02-28T03:55:06;30.60;42.80
21275;DHT22;36472;52.170;20.884;2024-02-28T03:57:36;30.60;42.50
21275;DHT22;36472;52.170;20.884;2024-02-28T04:00:06;30.60;42.50
21275;DHT22;36472;52.170;20.884;2024-02-28T04:02:39;30.60;42.60
21275;DHT22;36472;52.170;20.884;2024-02-28T04:05:10;30.60;43.20
21275;DHT22;36472;52.170;20.884;2024-02-28T04:07:39;30.60;42.50
21275;DHT22;36472;52.170;20.884;2024-02-28T04:10:09;30.60;42.50
21275;DHT22;36472;52.170;20.884;2024-02-28T04:12:38;30.60;42.40
21275;DHT22;36472;52.170;20.884;2024-02-28T04:15:08;30.60;42.60
21275;DHT22;36472;52.170;20.884;2024-02-28T04:17:42;30.60;42.50
21275;DHT22;36472;52.170;20.884;2024-02-28T04:20:13;30.60;42.40
21275;DHT22;36472;52.170;20.884;2024-02-28T04:22:42;30.60;42.40
21275;DHT22;36472;52.170;20.884;2024-02-28T04:25:11;30.60;43.10
21275;DHT22;36472;52.170;20.884;2024-02-28T04:27:41;30.60;43.20
21275;DHT22;36472;52.170;20.884;2024-02-28T04:30:12;30.50;42.50
21275;DHT22;36472;52.170;20.884;2024-02-28T04:32:41;30.60;42.50
21275;DHT22;36472;52.170;20.884;2024-02-28T04:35:12;30.60;42.40
21275;DHT22;36472;52.170;20.884;2024-02-28T04:37:43;30.50;42.20
21275;DHT22;36472;52.170;20.884;2024-02-28T04:40:12;30.60;42.20
21275;DHT22;36472;52.170;20.884;2024-02-28T04:42:42;30.60;42.20
21275;DHT22;36472;52.170;20.884;2024-02-28T04:45:12;30.60;42.80
21275;DHT22;36472;52.170;20.884;2024-02-28T04:47:42;30.60;42.20
21275;DHT22;36472;52.170;20.884;2024-02-28T04:50:13;30.60;42.10
21275;DHT22;36472;52.170;20.884;2024-02-28T04:52:42;30.50;42.10
21275;DHT22;36472;52.170;20.884;2024-02-28T04:55:11;30.60;42.20
21275;DHT22;36472;52.170;20.884;2024-02-28T05:02:12;30.60;42.20
21275;DHT22;36472;52.170;20.884;2024-02-28T05:04:41;30.60;42.10
21275;DHT22;36472;52.170;20.884;2024-02-28T05:07:11;30.50;42.00
21275;DHT22;36472;52.170;20.884;2024-02-28T05:09:41;30.60;42.20
21275;DHT22;36472;52.170;20.884;2024-02-28T05:12:10;30.60;42.40
21275;DHT22;36472;52.170;20.884;2024-02-28T05:14:40;30.60;43.10
21275;DHT22;36472;52.170;20.884;2024-02-28T05:17:09;30.60;42.20
21275;DHT22;36472;52.170;20.884;2024-02-28T05:19:39;30.60;42.40
21275;DHT22;36472;52.170;20.884;2024-02-28T05:22:08;30.60;42.40
21275;DHT22;36472;52.170;20.884;2024-02-28T05:24:40;30.60;42.10
21275;DHT22;36472;52.170;20.884;2024-02-28T05:27:11;30.60;42.70
21275;DHT22;36472;52.170;20.884;2024-02-28T05:34:14;30.60;42.10
21275;DHT22;36472;52.170;20.884;2024-02-28T05:36:44;30.60;42.10
21275;DHT22;36472;52.170;20.884;2024-02-28T05:39:13;30.60;42.00
21275;DHT22;36472;52.170;20.884;2024-02-28T05:41:46;30.60;42.20
21275;DHT22;36472;52.170;20.884;2024-02-28T05:44:15;30.60;42.20
21275;DHT22;36472;52.170;20.884;2024-02-28T05:46:43;30.60;42.10
21275;DHT22;36472;52.170;20.884;2024-02-28T05:49:13;30.60;42.20
21275;DHT22;36472;52.170;20.884;2024-02-28T05:51:44;30.60;42.30
21275;DHT22;36472;52.170;20.884;2024-02-28T05:54:14;30.50;42.20
21275;DHT22;36472;52.170;20.884;2024-02-28T05:56:46;30.50;42.80
21275;DHT22;36472;52.170;20.884;2024-02-28T05:59:15;30.50;42.80
21275;DHT22;36472;52.170;20.884;2024-02-28T06:01:44;30.50;43.00
21275;DHT22;36472;52.170;20.884;2024-02-28T06:04:15;30.50;42.20
21275;DHT22;36472;52.170;20.884;2024-02-28T06:06:44;30.60;42.30
21275;DHT22;36472;52.170;20.884;2024-02-28T06:09:13;30.60;42.40
21275;DHT22;36472;52.170;20.884;2024-02-28T06:11:42;30.60;42.50
21275;DHT22;36472;52.170;20.884;2024-02-28T06:14:13;30.60;42.50
21275;DHT22;36472;52.170;20.884;2024-02-28T06:16:42;30.50;42.40
21275;DHT22;36472;52.170;20.884;2024-02-28T06:19:11;30.60;42.40
21275;DHT22;36472;52.170;20.884;2024-02-28T06:21:40;30.60;42.30
21275;DHT22;36472;52.170;20.884;2024-02-28T06:24:10;30.60;42.50
21275;DHT22;36472;52.170;20.884;2024-02-28T06:26:39;30.60;42.50
21275;DHT22;36472;52.170;20.884;2024-02-28T06:29:10;30.60;42.50
21275;DHT22;36472;52.170;20.884;2024-02-28T06:31:41;30.70;42.60
21275;DHT22;36472;52.170;20.884;2024-02-28T06:34:11;30.60;42.50
21275;DHT22;36472;52.170;20.884;2024-02-28T06:36:41;30.60;42.60
21275;DHT22;36472;52.170;20.884;2024-02-28T06:39:10;30.60;42.50
21275;DHT22;36472;52.170;20.884;2024-02-28T06:41:40;30.60;42.50
21275;DHT22;36472;52.170;20.884;2024-02-28T06:44:10;30.60;42.60
21275;DHT22;36472;52.170;20.884;2024-02-28T06:46:41;30.60;42.80
21275;DHT22;36472;52.170;20.884;2024-02-28T06:49:10;30.60;42.60
21275;DHT22;36472;52.170;20.884;2024-02-28T06:51:39;30.70;42.60
21275;DHT22;36472;52.170;20.884;2024-02-28T06:54:08;30.70;42.70
21275;DHT22;36472;52.170;20.884;2024-02-28T06:56:37;30.70;42.80
21275;DHT22;36472;52.170;20.884;2024-02-28T06:59:07;30.70;42.90
21275;DHT22;36472;52.170;20.884;2024-02-28T07:01:35;30.70;42.90
21275;DHT22;36472;52.170;20.884;2024-02-28T07:04:06;30.80;43.70
21275;DHT22;36472;52.170;20.884;2024-02-28T07:06:35;30.80;43.10
21275;DHT22;36472;52.170;20.884;2024-02-28T07:09:04;30.80;43.10
21275;DHT22;36472;52.170;20.884;2024-02-28T07:11:37;30.90;43.20
21275;DHT22;36472;52.170;20.884;2024-02-28T07:14:06;30.90;43.20
21275;DHT22;36472;52.170;20.884;2024-02-28T07:16:35;30.90;43.30
21275;DHT22;36472;52.170;20.884;2024-02-28T07:19:05;31.00;44.10
21275;DHT22;36472;52.170;20.884;2024-02-28T07:21:35;31.00;43.50
21275;DHT22;36472;52.170;20.884;2024-02-28T07:24:05;31.10;43.50
21275;DHT22;36472;52.170;20.884;2024-02-28T07:26:34;31.10;43.50
21275;DHT22;36472;52.170;20.884;2024-02-28T07:29:05;31.20;43.70
21275;DHT22;36472;52.170;20.884;2024-02-28T07:31:34;31.20;43.50
21275;DHT22;36472;52.170;20.884;2024-02-28T07:34:03;31.20;43.50
21275;DHT22;36472;52.170;20.884;2024-02-28T07:36:35;31.20;43.50
21275;DHT22;36472;52.170;20.884;2024-02-28T07:43:36;31.30;43.50
21275;DHT22;36472;52.170;20.884;2024-02-28T07:46:06;31.30;43.60
21275;DHT22;36472;52.170;20.884;2024-02-28T07:48:37;31.30;43.60
21275;DHT22;36472;52.170;20.884;2024-02-28T07:51:08;31.40;44.40
21275;DHT22;36472;52.170;20.884;2024-02-28T07:53:37;31.40;43.80
21275;DHT22;36472;52.170;20.884;2024-02-28T07:56:15;31.40;43.80
21275;DHT22;36472;52.170;20.884;2024-02-28T07:58:46;31.50;43.70
21275;DHT22;36472;52.170;20.884;2024-02-28T08:01:15;31.50;43.50
21275;DHT22;36472;52.170;20.884;2024-02-28T08:03:45;31.50;43.40
21275;DHT22;36472;52.170;20.884;2024-02-28T08:06:15;31.60;43.70
21275;DHT22;36472;52.170;20.884;2024-02-28T08:08:45;31.60;43.60
21275;DHT22;36472;52.170;20.884;2024-02-28T08:11:14;31.60;44.30
21275;DHT22;36472;52.170;20.884;2024-02-28T08:13:42;31.60;43.50
21275;DHT22;36472;52.170;20.884;2024-02-28T08:16:11;31.60;43.60
21275;DHT22;36472;52.170;20.884;2024-02-28T08:18:46;31.60;43.60
21275;DHT22;36472;52.170;20.884;2024-02-28T08:21:17;31.60;43.50
21275;DHT22;36472;52.170;20.884;2024-02-28T08:23:55;31.60;43.60
21275;DHT22;36472;52.170;20.884;2024-02-28T08:26:25;31.60;43.70
21275;DHT22;36472;52.170;20.884;2024-02-28T08:28:54;31.70;43.70
21275;DHT22;36472;52.170;20.884;2024-02-28T08:31:23;31.70;43.50
21275;DHT22;36472;52.170;20.884;2024-02-28T08:33:52;31.70;43.70
21275;DHT22;36472;52.170;20.884;2024-02-28T08:36:24;31.70;43.70
21275;DHT22;36472;52.170;20.884;2024-02-28T08:38:53;31.70;43.70
21275;DHT22;36472;52.170;20.884;2024-02-28T08:41:22;31.70;43.90
21275;DHT22;36472;52.170;20.884;2024-02-28T08:43:52;31.70;43.80
21275;DHT22;36472;52.170;20.884;2024-02-28T08:46:21;31.70;44.00
21275;DHT22;36472;52.170;20.884;2024-02-28T08:48:50;31.70;44.00
21275;DHT22;36472;52.170;20.884;2024-02-28T08:51:19;31.70;44.00
21275;DHT22;36472;52.170;20.884;2024-02-28T08:53:51;31.80;44.00
21275;DHT22;36472;52.170;20.884;2024-02-28T08:56:22;31.80;44.20
21275;DHT22;36472;52.170;20.884;2024-02-28T08:58:52;31.80;44.10
21275;DHT22;36472;52.170;20.884;2024-02-28T09:05:54;31.80;44.30
21275;DHT22;36472;52.170;20.884;2024-02-28T09:08:23;31.90;44.40
21275;DHT22;36472;52.170;20.884;2024-02-28T09:10:54;32.00;44.40
21275;DHT22;36472;52.170;20.884;2024-02-28T09:13:23;32.00;44.20
21275;DHT22;36472;52.170;20.884;2024-02-28T09:15:52;32.00;44.40
21275;DHT22;36472;52.170;20.884;2024-02-28T09:18:23;32.10;44.40
21275;DHT22;36472;52.170;20.884;2024-02-28T09:20:52;32.10;44.50
21275;DHT22;36472;52.170;20.884;2024-02-28T09:23:22;32.10;44.50
21275;DHT22;36472;52.170;20.884;2024-02-28T09:25:51;32.20;44.40
21275;DHT22;36472;52.170;20.884;2024-02-28T09:28:21;32.20;44.30
21275;DHT22;36472;52.170;20.884;2024-02-28T09:30:50;32.20;44.30
21275;DHT22;36472;52.170;20.884;2024-02-28T09:33:20;32.30;44.40
21275;DHT22;36472;52.170;20.884;2024-02-28T09:35:49;32.30;44.30
21275;DHT22;36472;52.170;20.884;2024-02-28T09:38:19;32.30;44.40
21275;DHT22;36472;52.170;20.884;2024-02-28T09:40:48;32.30;45.00
21275;DHT22;36472;52.170;20.884;2024-02-28T09:43:28;32.30;44.30
21275;DHT22;36472;52.170;20.884;2024-02-28T09:46:04;32.30;44.10
21275;DHT22;36472;52.170;20.884;2024-02-28T09:48:34;32.40;44.00
21275;DHT22;36472;52.170;20.884;2024-02-28T09:51:04;32.40;44.60
21275;DHT22;36472;52.170;20.884;2024-02-28T09:53:34;32.40;44.10
21275;DHT22;36472;52.170;20.884;2024-02-28T10:00:37;32.40;44.50
21275;DHT22;36472;52.170;20.884;2024-02-28T10:03:07;32.40;44.30
21275;DHT22;36472;52.170;20.884;2024-02-28T10:05:39;32.50;44.30
21275;DHT22;36472;52.170;20.884;2024-02-28T10:08:08;32.50;44.10
21275;DHT22;36472;52.170;20.884;2024-02-28T10:10:38;32.50;43.70
21275;DHT22;36472;52.170;20.884;2024-02-28T10:13:07;32.50;43.40
21275;DHT22;36472;52.170;20.884;2024-02-28T10:15:37;32.50;43.80
21275;DHT22;36472;52.170;20.884;2024-02-28T10:18:06;32.50;44.00
21275;DHT22;36472;52.170;20.884;2024-02-28T10:20:36;32.50;44.00
21275;DHT22;36472;52.170;20.884;2024-02-28T10:23:06;32.50;44.10
21275;DHT22;36472;52.170;20.884;2024-02-28T10:25:42;32.50;43.80
21275;DHT22;36472;52.170;20.884;2024-02-28T10:32:57;32.40;43.50
21275;DHT22;36472;52.170;20.884;2024-02-28T10:35:26;32.40;43.60
21275;DHT22;36472;52.170;20.884;2024-02-28T10:37:55;32.40;43.50
21275;DHT22;36472;52.170;20.884;2024-02-28T10:40:24;32.40;43.70
21275;DHT22;36472;52.170;20.884;2024-02-28T10:47:26;32.40;44.00
21275;DHT22;36472;52.170;20.884;2024-02-28T10:49:57;32.40;44.70
21275;DHT22;36472;52.170;20.884;2024-02-28T10:52:27;32.40;44.70
21275;DHT22;36472;52.170;20.884;2024-02-28T10:54:58;32.40;43.70
21275;DHT22;36472;52.170;20.884;2024-02-28T10:57:29;32.40;43.20
21275;DHT22;36472;52.170;20.884;2024-02-28T11:04:32;32.40;43.60
21275;DHT22;36472;52.170;20.884;2024-02-28T11:07:06;32.30;43.60
21275;DHT22;36472;52.170;20.884;2024-02-28T11:09:35;32.30;43.60
21275;DHT22;36472;52.170;20.884;2024-02-28T11:12:04;32.30;43.40
21275;DHT22;36472;52.170;20.884;2024-02-28T11:14:34;32.30;43.60
21275;DHT22;36472;52.170;20.884;2024-02-28T11:17:05;32.30;44.00
21275;DHT22;36472;52.170;20.884;2024-02-28T11:19:34;32.40;43.70
21275;DHT22;36472;52.170;20.884;2024-02-28T11:22:06;32.30;44.50
21275;DHT22;36472;52.170;20.884;2024-02-28T11:24:36;32.40;43.70
21275;DHT22;36472;52.170;20.884;2024-02-28T11:27:05;32.40;43.90
21275;DHT22;36472;52.170;20.884;2024-02-28T11:34:08;32.40;43.60
21275;DHT22;36472;52.170;20.884;2024-02-28T11:36:37;32.40;43.30
21275;DHT22;36472;52.170;20.884;2024-02-28T11:39:08;32.40;43.30
21275;DHT22;36472;52.170;20.884;2024-02-28T11:41:37;32.30;43.00
21275;DHT22;36472;52.170;20.884;2024-02-28T11:44:07;32.30;43.00
21275;DHT22;36472;52.170;20.884;2024-02-28T11:46:36;32.20;42.90
21275;DHT22;36472;52.170;20.884;2024-02-28T11:49:06;32.30;43.10
21275;DHT22;36472;52.170;20.884;2024-02-28T11:51:35;32.20;43.20
21275;DHT22;36472;52.170;20.884;2024-02-28T11:54:04;32.00;42.90
21275;DHT22;36472;52.170;20.884;2024-02-28T11:56:34;31.90;42.70
21275;DHT22;36472;52.170;20.884;2024-02-28T11:59:04;31.80;42.80
21275;DHT22;36472;52.170;20.884;2024-02-28T12:01:37;31.70;42.60
21275;DHT22;36472;52.170;20.884;2024-02-28T12:04:13;31.60;42.60
21275;DHT22;36472;52.170;20.884;2024-02-28T12:06:42;31.60;42.60
21275;DHT22;36472;52.170;20.884;2024-02-28T12:09:12;31.50;42.60
21275;DHT22;36472;52.170;20.884;2024-02-28T12:11:55;31.50;42.60
21275;DHT22;36472;52.170;20.884;2024-02-28T12:14:24;31.50;42.60
21275;DHT22;36472;52.170;20.884;2024-02-28T12:21:26;31.30;42.30
21275;DHT22;36472;52.170;20.884;2024-02-28T12:23:56;31.20;42.20
21275;DHT22;36472;52.170;20.884;2024-02-28T12:26:27;31.20;42.30
21275;DHT22;36472;52.170;20.884;2024-02-28T12:28:57;31.20;42.30
21275;DHT22;36472;52.170;20.884;2024-02-28T12:31:27;31.10;42.50
21275;DHT22;36472;52.170;20.884;2024-02-28T12:33:56;31.10;42.50
21275;DHT22;36472;52.170;20.884;2024-02-28T12:36:25;31.10;42.70
21275;DHT22;36472;52.170;20.884;2024-02-28T12:38:55;31.20;43.10
21275;DHT22;36472;52.170;20.884;2024-02-28T12:41:24;31.20;42.60
21275;DHT22;36472;52.170;20.884;2024-02-28T12:43:53;31.20;42.50
21275;DHT22;36472;52.170;20.884;2024-02-28T12:46:24;31.10;43.10
21275;DHT22;36472;52.170;20.884;2024-02-28T12:48:53;31.20;42.40
21275;DHT22;36472;52.170;20.884;2024-02-28T12:51:37;31.10;42.30
21275;DHT22;36472;52.170;20.884;2024-02-28T12:54:08;31.10;42.30
21275;DHT22;36472;52.170;20.884;2024-02-28T12:56:38;31.10;42.40
21275;DHT22;36472;52.170;20.884;2024-02-28T12:59:07;31.10;42.40
21275;DHT22;36472;52.170;20.884;2024-02-28T13:01:39;31.10;42.10
21275;DHT22;36472;52.170;20.884;2024-02-28T13:04:08;31.00;42.00
21275;DHT22;36472;52.170;20.884;2024-02-28T13:06:38;30.90;42.20
21275;DHT22;36472;52.170;20.884;2024-02-28T13:09:08;30.90;42.20
21275;DHT22;36472;52.170;20.884;2024-02-28T13:11:42;30.80;42.00
21275;DHT22;36472;52.170;20.884;2024-02-28T13:14:11;30.70;42.20
21275;DHT22;36472;52.170;20.884;2024-02-28T13:16:41;30.60;42.30
21275;DHT22;36472;52.170;20.884;2024-02-28T13:19:13;30.60;42.50
21275;DHT22;36472;52.170;20.884;2024-02-28T13:21:42;30.60;42.60
21275;DHT22;36472;52.170;20.884;2024-02-28T13:28:43;30.50;42.50
21275;DHT22;36472;52.170;20.884;2024-02-28T13:31:20;30.60;42.80
21275;DHT22;36472;52.170;20.884;2024-02-28T13:33:51;30.60;43.50
21275;DHT22;36472;52.170;20.884;2024-02-28T13:36:19;30.60;42.60
21275;DHT22;36472;52.170;20.884;2024-02-28T13:38:49;30.50;42.50
21275;DHT22;36472;52.170;20.884;2024-02-28T13:41:18;30.60;42.60
21275;DHT22;36472;52.170;20.884;2024-02-28T13:43:47;30.60;42.60
21275;DHT22;36472;52.170;20.884;2024-02-28T13:46:16;30.50;42.50
21275;DHT22;36472;52.170;20.884;2024-02-28T13:48:47;30.50;42.70
21275;DHT22;36472;52.170;20.884;2024-02-28T13:51:17;30.40;42.80
21275;DHT22;36472;52.170;20.884;2024-02-28T13:53:47;30.40;43.00
21275;DHT22;36472;52.170;20.884;2024-02-28T13:56:20;30.30;42.80
21275;DHT22;36472;52.170;20.884;2024-02-28T13:58:52;30.30;43.00
21275;DHT22;36472;52.170;20.884;2024-02-28T14:01:21;30.30;43.00
21275;DHT22;36472;52.170;20.884;2024-02-28T14:03:51;30.30;43.10
21275;DHT22;36472;52.170;20.884;2024-02-28T14:06:21;30.30;42.90
21275;DHT22;36472;52.170;20.884;2024-02-28T14:08:50;30.30;43.10
21275;DHT22;36472;52.170;20.884;2024-02-28T14:11:21;30.30;43.00
21275;DHT22;36472;52.170;20.884;2024-02-28T14:13:51;30.30;43.00
21275;DHT22;36472;52.170;20.884;2024-02-28T14:16:20;30.30;42.90
21275;DHT22;36472;52.170;20.884;2024-02-28T14:18:51;30.40;43.20
21275;DHT22;36472;52.170;20.884;2024-02-28T14:21:22;30.30;43.10
21275;DHT22;36472;52.170;20.884;2024-02-28T14:23:52;30.40;43.20
21275;DHT22;36472;52.170;20.884;2024-02-28T14:26:21;30.40;43.20
21275;DHT22;36472;52.170;20.884;2024-02-28T14:28:52;30.40;42.90
21275;DHT22;36472;52.170;20.884;2024-02-28T14:31:23;30.40;42.90
21275;DHT22;36472;52.170;20.884;2024-02-28T14:38:26;30.50;42.80
21275;DHT22;36472;52.170;20.884;2024-02-28T14:40:55;30.40;43.30
21275;DHT22;36472;52.170;20.884;2024-02-28T14:43:24;30.50;42.70
21275;DHT22;36472;52.170;20.884;2024-02-28T14:45:54;30.50;42.60
21275;DHT22;36472;52.170;20.884;2024-02-28T14:48:23;30.40;42.60
21275;DHT22;36472;52.170;20.884;2024-02-28T14:50:52;30.40;42.60
21275;DHT22;36472;52.170;20.884;2024-02-28T14:53:22;30.50;42.70
21275;DHT22;36472;52.170;20.884;2024-02-28T14:55:53;30.40;42.50
21275;DHT22;36472;52.170;20.884;2024-02-28T14:58:22;30.40;42.50
21275;DHT22;36472;52.170;20.884;2024-02-28T15:00:51;30.50;42.60
21275;DHT22;36472;52.170;20.884;2024-02-28T15:03:22;30.40;42.60
21275;DHT22;36472;52.170;20.884;2024-02-28T15:05:51;30.40;42.60
21275;DHT22;36472;52.170;20.884;2024-02-28T15:08:20;30.40;42.60
21275;DHT22;36472;52.170;20.884;2024-02-28T15:10:51;30.40;42.60
21275;DHT22;36472;52.170;20.884;2024-02-28T15:13:21;30.40;42.80
21275;DHT22;36472;52.170;20.884;2024-02-28T15:15:51;30.40;42.70
21275;DHT22;36472;52.170;20.884;2024-02-28T15:18:22;30.40;42.80
21275;DHT22;36472;52.170;20.884;2024-02-28T15:20:52;30.40;42.70
21275;DHT22;36472;52.170;20.884;2024-02-28T15:23:26;30.40;42.60
21275;DHT22;36472;52.170;20.884;2024-02-28T15:26:00;30.40;42.70
21275;DHT22;36472;52.170;20.884;2024-02-28T15:28:30;30.40;42.80
21275;DHT22;36472;52.170;20.884;2024-02-28T15:31:00;30.40;42.70
21275;DHT22;36472;52.170;20.884;2024-02-28T15:33:31;30.40;42.70
21275;DHT22;36472;52.170;20.884;2024-02-28T15:36:00;30.40;43.50
21275;DHT22;36472;52.170;20.884;2024-02-28T15:38:31;30.40;42.60
21275;DHT22;36472;52.170;20.884;2024-02-28T15:41:01;30.40;43.30
21275;DHT22;36472;52.170;20.884;2024-02-28T15:43:31;30.50;42.80
21275;DHT22;36472;52.170;20.884;2024-02-28T15:46:01;30.40;43.20
21275;DHT22;36472;52.170;20.884;2024-02-28T15:48:31;30.40;42.50
21275;DHT22;36472;52.170;20.884;2024-02-28T15:51:00;30.40;42.60
21275;DHT22;36472;52.170;20.884;2024-02-28T15:53:30;30.40;42.50
21275;DHT22;36472;52.170;20.884;2024-02-28T15:56:00;30.30;42.60
21275;DHT22;36472;52.170;20.884;2024-02-28T15:58:32;30.40;42.70
21275;DHT22;36472;52.170;20.884;2024-02-28T16:05:34;30.40;42.90
21275;DHT22;36472;52.170;20.884;2024-02-28T16:08:03;30.40;42.80
21275;DHT22;36472;52.170;20.884;2024-02-28T16:10:33;30.40;42.70
21275;DHT22;36472;52.170;20.884;2024-02-28T16:13:03;30.40;42.60
21275;DHT22;36472;52.170;20.884;2024-02-28T16:15:34;30.40;42.60
21275;DHT22;36472;52.170;20.884;2024-02-28T16:18:04;30.40;42.60
21275;DHT22;36472;52.170;20.884;2024-02-28T16:20:35;30.40;42.60
21275;DHT22;36472;52.170;20.884;2024-02-28T16:23:04;30.40;42.60
21275;DHT22;36472;52.170;20.884;2024-02-28T16:25:33;30.40;42.60
21275;DHT22;36472;52.170;20.884;2024-02-28T16:28:04;30.30;42.50
21275;DHT22;36472;52.170;20.884;2024-02-28T16:30:34;30.30;42.50
21275;DHT22;36472;52.170;20.884;2024-02-28T16:33:03;30.30;42.60
21275;DHT22;36472;52.170;20.884;2024-02-28T16:35:33;30.30;42.50